Terminal Aerodrome Forecast
Issued by NWS

Home | Current Version | Previous Version | Text Only | Print | Product List | Glossary On
Versions: 1 2 3 4 5 6 7 8 9 10 11 12
000
FTUS41 KBOX 231734 AAA
TAFBED
TAF AMD
KBED 231734Z 2318/2418 29009G17KT P6SM BKN070
     FM232000 30010KT P6SM VCTS BKN070CB
     FM240100 31006KT P6SM SCT100
     FM240800 00000KT P6SM FEW250
     FM241300 31006KT P6SM FEW250=

USA.gov is the U.S. government's official web portal to all federal, state and local government web resources and services.